Time;durP1;ratioP1;P1;durP2;ratioP2;P2;SDS_P1;SDS_P2;PMS_P1;PMS_P2;Temp;Humidity;BMP_temperature;BMP_pressure;BME280_temperature;BME280_humidity;BME280_pressure;Samples;Min_cycle;Max_cycle;Signal;HPM_P1;HPM_P2
2022/01/14 00:00:38;;;;;;;6.18;1.05;;;26.70;99.90;;;;;;5070716;28;20029;-70
2022/01/14 00:03:05;;;;;;;7.40;1.38;;;26.80;99.90;;;;;;5071403;28;20114;-70
2022/01/14 00:05:33;;;;;;;3.03;1.02;;;26.70;99.90;;;;;;5069885;28;20419;-69
2022/01/14 00:08:00;;;;;;;5.68;1.35;;;26.90;99.90;;;;;;5070013;28;20109;-70
2022/01/14 00:10:32;;;;;;;6.68;1.20;;;27.00;99.90;;;;;;5069795;28;20424;-70
2022/01/14 00:13:08;;;;;;;6.38;1.20;;;27.10;99.90;;;;;;5068031;28;20082;-70
2022/01/14 00:15:35;;;;;;;8.15;1.08;;;27.20;99.90;;;;;;5067392;28;20033;-68
2022/01/14 00:18:07;;;;;;;4.38;1.23;;;27.40;99.90;;;;;;5068164;28;20024;-70
2022/01/14 00:20:34;;;;;;;4.22;1.20;;;27.30;99.90;;;;;;5076815;28;20054;-69
2022/01/14 00:23:05;;;;;;;8.70;1.55;;;27.30;99.90;;;;;;5069025;28;20020;-69
2022/01/14 00:33:36;;;;;;;4.60;1.40;;;27.20;99.90;;;;;;5088983;28;20027;-69
2022/01/14 00:36:05;;;;;;;4.78;1.33;;;27.30;99.90;;;;;;5074906;28;20020;-69
2022/01/14 00:38:36;;;;;;;8.55;1.30;;;27.20;99.90;;;;;;5092849;28;20076;-69
2022/01/14 00:41:06;;;;;;;7.40;1.60;;;27.30;99.90;;;;;;5074108;28;20162;-70
2022/01/14 00:43:40;;;;;;;2.97;1.30;;;27.30;99.90;;;;;;5071604;28;20111;-69
2022/01/14 00:46:11;;;;;;;7.32;1.70;;;27.20;99.90;;;;;;5069532;28;20030;-69
2022/01/14 00:48:41;;;;;;;6.57;1.42;;;27.30;99.90;;;;;;5071518;28;20107;-69
2022/01/14 00:51:09;;;;;;;6.57;1.45;;;27.50;99.90;;;;;;5071506;28;20056;-69
2022/01/14 00:53:37;;;;;;;5.68;1.23;;;27.70;99.90;;;;;;5071289;28;20522;-69
2022/01/14 00:56:21;;;;;;;6.03;1.15;;;27.90;99.90;;;;;;5071307;28;20066;-69
2022/01/14 01:01:33;;;;;;;5.40;1.00;;;28.20;99.90;;;;;;5071754;28;20499;-70
2022/01/14 01:04:02;;;;;;;5.45;1.17;;;28.30;99.90;;;;;;5071157;28;20408;-69
2022/01/14 01:06:31;;;;;;;3.55;1.00;;;28.50;99.90;;;;;;5071501;28;20025;-70
2022/01/14 01:08:59;;;;;;;6.38;1.20;;;28.30;99.90;;;;;;5071318;28;20033;-69
2022/01/14 01:11:37;;;;;;;5.97;2.22;;;28.40;99.90;;;;;;5071936;28;20701;-70
2022/01/14 01:14:24;;;;;;;7.78;1.67;;;28.40;99.90;;;;;;5069555;28;20021;-69
2022/01/14 01:16:52;;;;;;;6.50;1.35;;;28.40;99.90;;;;;;5070975;28;20473;-68
2022/01/14 01:19:24;;;;;;;7.35;1.50;;;28.40;99.90;;;;;;5070744;28;20040;-69
2022/01/14 01:21:52;;;;;;;4.25;1.15;;;28.10;99.90;;;;;;5070142;28;20464;-70
2022/01/14 01:24:20;;;;;;;7.18;1.52;;;28.20;99.90;;;;;;5070710;28;20389;-70
2022/01/14 01:26:49;;;;;;;6.97;1.83;;;28.20;99.90;;;;;;5072143;28;20516;-69
2022/01/14 01:29:44;;;;;;;8.98;1.55;;;28.30;99.90;;;;;;5072761;28;20465;-70
2022/01/14 01:32:11;;;;;;;6.60;1.42;;;28.40;99.90;;;;;;5072389;28;20044;-69
2022/01/14 01:34:40;;;;;;;4.15;1.35;;;28.40;99.90;;;;;;5066488;28;20020;-69
2022/01/14 01:37:08;;;;;;;5.85;1.20;;;28.40;99.90;;;;;;5052906;28;20389;-69
2022/01/14 01:39:40;;;;;;;6.93;1.20;;;28.60;99.90;;;;;;5058039;28;20055;-70
2022/01/14 01:42:13;;;;;;;5.97;1.40;;;28.80;99.90;;;;;;5051993;28;20052;-70
2022/01/14 01:44:47;;;;;;;6.38;1.67;;;29.10;99.90;;;;;;5066821;28;20057;-70
2022/01/14 01:47:15;;;;;;;8.80;1.63;;;29.20;99.90;;;;;;5051861;28;20410;-71
2022/01/14 01:49:42;;;;;;;6.60;1.42;;;29.40;99.90;;;;;;5058189;28;20478;-70
2022/01/14 01:52:10;;;;;;;8.32;1.70;;;29.20;98.80;;;;;;5065380;28;20111;-69
2022/01/14 01:54:39;;;;;;;9.35;2.28;;;29.00;99.60;;;;;;5068766;28;20036;-70
2022/01/14 01:57:08;;;;;;;6.95;1.00;;;29.00;99.50;;;;;;5070792;28;20017;-70
2022/01/14 01:59:36;;;;;;;7.75;1.77;;;29.10;99.60;;;;;;5070632;28;20028;-69
2022/01/14 02:02:05;;;;;;;7.35;1.88;;;29.40;99.70;;;;;;5070090;28;20017;-69
2022/01/14 02:04:32;;;;;;;7.20;1.65;;;29.60;99.10;;;;;;5071078;28;20031;-70
2022/01/14 02:07:04;;;;;;;7.50;1.33;;;29.80;98.90;;;;;;5068767;28;20013;-69
2022/01/14 02:09:31;;;;;;;13.52;1.55;;;29.90;98.80;;;;;;5067040;28;20028;-70
2022/01/14 02:12:05;;;;;;;5.18;1.25;;;30.00;98.20;;;;;;5068726;28;20069;-70
2022/01/14 02:22:57;;;;;;;7.43;1.48;;;30.20;97.40;;;;;;5067171;28;20081;-70
2022/01/14 02:25:30;;;;;;;6.93;1.90;;;30.30;97.50;;;;;;5071868;28;20119;-70
2022/01/14 02:28:05;;;;;;;5.47;1.58;;;30.30;97.50;;;;;;5080506;28;20111;-70
2022/01/14 02:30:35;;;;;;;10.25;2.13;;;30.60;97.60;;;;;;5075491;28;20101;-71
2022/01/14 02:33:03;;;;;;;8.80;1.40;;;30.70;97.40;;;;;;5075971;28;20509;-70
2022/01/14 02:35:35;;;;;;;6.50;1.73;;;30.60;97.50;;;;;;5080218;28;20374;-70
2022/01/14 02:38:03;;;;;;;9.77;1.98;;;30.70;97.90;;;;;;5077053;28;20025;-70
2022/01/14 02:40:30;;;;;;;7.55;1.85;;;30.70;97.60;;;;;;5076802;28;20028;-70
2022/01/14 02:43:00;;;;;;;10.80;2.00;;;30.70;97.30;;;;;;5077532;28;20038;-70
2022/01/14 02:45:32;;;;;;;6.30;1.33;;;30.80;97.10;;;;;;5068176;28;20063;-69
2022/01/14 02:48:00;;;;;;;4.43;1.60;;;30.80;97.00;;;;;;5067093;28;20013;-70
2022/01/14 02:50:37;;;;;;;4.90;1.17;;;30.80;96.20;;;;;;5068643;28;20051;-70
2022/01/14 02:53:24;;;;;;;6.47;1.00;;;30.70;95.50;;;;;;5067246;28;20039;-70
2022/01/14 02:55:53;;;;;;;6.03;1.33;;;30.50;95.50;;;;;;5069971;28;20039;-70
2022/01/14 02:58:22;;;;;;;7.97;1.55;;;30.30;95.90;;;;;;5069235;28;20042;-70
2022/01/14 03:00:52;;;;;;;5.28;1.65;;;30.30;96.40;;;;;;5082551;28;20444;-70
2022/01/14 03:03:24;;;;;;;6.25;1.52;;;30.60;96.60;;;;;;5068495;28;20017;-69
2022/01/14 03:05:52;;;;;;;9.82;1.85;;;30.90;96.70;;;;;;5067257;28;20534;-70
2022/01/14 03:08:24;;;;;;;7.57;1.35;;;31.30;95.50;;;;;;5069816;28;20050;-71
2022/01/14 03:11:03;;;;;;;8.00;2.10;;;31.50;94.70;;;;;;5067684;28;20020;-69
2022/01/14 03:13:31;;;;;;;6.90;1.95;;;31.50;94.70;;;;;;5070054;28;20021;-70
2022/01/14 03:15:59;;;;;;;6.35;2.33;;;31.60;94.40;;;;;;5067709;28;20043;-70
2022/01/14 03:18:48;;;;;;;10.05;1.63;;;32.00;93.60;;;;;;5056715;28;20028;-70
2022/01/14 03:21:17;;;;;;;8.70;2.55;;;32.10;93.70;;;;;;5052231;28;20064;-70
2022/01/14 03:23:52;;;;;;;6.03;2.00;;;32.30;93.40;;;;;;5053233;28;20473;-70
2022/01/14 03:26:21;;;;;;;6.72;1.65;;;32.70;92.90;;;;;;5055748;28;20036;-69
2022/01/14 03:28:49;;;;;;;6.82;1.73;;;32.70;93.00;;;;;;5053667;28;20397;-68
2022/01/14 03:31:16;;;;;;;9.07;1.92;;;33.00;93.40;;;;;;5052603;28;20049;-69
2022/01/14 03:33:44;;;;;;;10.00;1.73;;;33.30;92.20;;;;;;5052391;28;20509;-70
2022/01/14 03:36:12;;;;;;;8.40;2.08;;;33.10;91.90;;;;;;5062462;28;20024;-69
2022/01/14 03:38:39;;;;;;;9.88;2.33;;;32.70;92.40;;;;;;5051852;28;20029;-71
2022/01/14 03:41:07;;;;;;;6.95;2.05;;;32.70;92.90;;;;;;5055060;28;20104;-69
2022/01/14 03:43:36;;;;;;;8.10;1.52;;;32.60;92.90;;;;;;5051123;28;20377;-70
2022/01/14 03:46:04;;;;;;;7.57;1.70;;;32.60;92.90;;;;;;5065563;28;20013;-70
2022/01/14 03:48:31;;;;;;;6.95;1.75;;;32.80;92.30;;;;;;5062802;28;20021;-69
2022/01/14 03:50:58;;;;;;;8.18;2.20;;;33.20;91.50;;;;;;5064239;28;20086;-69
2022/01/14 03:53:26;;;;;;;7.25;2.47;;;33.70;91.10;;;;;;5072144;28;20028;-69
2022/01/14 03:55:54;;;;;;;6.22;1.60;;;34.20;90.50;;;;;;5067213;28;20024;-68
2022/01/14 03:58:21;;;;;;;10.65;1.80;;;34.30;88.00;;;;;;5068604;28;20070;-69
2022/01/14 04:00:48;;;;;;;8.75;2.05;;;34.60;86.70;;;;;;5069150;28;20097;-69
2022/01/14 04:03:16;;;;;;;6.30;1.63;;;34.30;86.00;;;;;;5069025;28;20055;-70
2022/01/14 04:05:43;;;;;;;5.70;1.55;;;34.20;87.50;;;;;;5064156;28;20056;-70
2022/01/14 04:08:10;;;;;;;4.05;1.45;;;34.10;84.90;;;;;;5068083;28;20111;-70
2022/01/14 04:10:38;;;;;;;6.15;1.65;;;33.70;86.00;;;;;;5067678;28;20035;-70
2022/01/14 04:13:11;;;;;;;6.70;1.70;;;33.70;86.80;;;;;;5055866;28;20048;-70
2022/01/14 04:15:41;;;;;;;10.02;1.48;;;33.40;86.30;;;;;;5048386;28;20075;-70
2022/01/14 04:18:15;;;;;;;7.05;1.92;;;33.00;86.60;;;;;;5049031;28;20071;-70
2022/01/14 04:20:49;;;;;;;5.20;1.52;;;32.90;87.70;;;;;;5048923;28;20037;-70
2022/01/14 04:23:19;;;;;;;5.25;1.50;;;32.80;87.70;;;;;;5050264;28;20083;-69
2022/01/14 04:25:48;;;;;;;6.80;1.92;;;33.00;87.70;;;;;;5048112;28;20021;-70
2022/01/14 04:28:15;;;;;;;10.80;2.40;;;33.00;86.10;;;;;;5049846;28;20108;-70
2022/01/14 04:30:42;;;;;;;6.82;1.60;;;33.20;85.70;;;;;;5049380;28;20071;-70
2022/01/14 04:33:10;;;;;;;9.57;1.85;;;33.10;85.50;;;;;;5049282;28;20173;-70
2022/01/14 04:35:37;;;;;;;7.63;2.00;;;33.60;85.10;;;;;;5049775;28;20025;-70
2022/01/14 04:38:05;;;;;;;7.72;1.83;;;33.60;84.00;;;;;;5049641;28;20032;-70
2022/01/14 04:40:33;;;;;;;7.53;1.50;;;34.00;84.30;;;;;;5050976;28;20033;-70
2022/01/14 04:43:01;;;;;;;6.13;1.75;;;34.40;83.60;;;;;;5051268;28;20048;-70
2022/01/14 04:48:08;;;;;;;7.63;1.40;;;35.00;81.40;;;;;;5051505;28;20083;-70
2022/01/14 04:50:35;;;;;;;10.17;1.80;;;34.60;80.70;;;;;;5051371;28;20113;-70
2022/01/14 04:53:03;;;;;;;6.20;2.13;;;34.00;81.90;;;;;;5051077;28;20021;-69
2022/01/14 04:55:30;;;;;;;10.60;1.80;;;32.90;83.80;;;;;;5053413;28;20028;-68
2022/01/14 04:57:58;;;;;;;7.05;1.67;;;32.20;85.60;;;;;;5070569;28;20574;-70
2022/01/14 05:00:28;;;;;;;10.68;2.00;;;31.70;87.50;;;;;;5068640;28;20045;-68
2022/01/14 05:02:56;;;;;;;6.55;1.42;;;31.10;89.00;;;;;;5069798;28;20381;-69
2022/01/14 05:05:27;;;;;;;11.75;2.47;;;30.70;90.10;;;;;;5069816;28;20029;-68
2022/01/14 05:07:54;;;;;;;5.10;1.63;;;30.20;90.50;;;;;;5070252;28;20028;-70
2022/01/14 05:12:52;;;;;;;9.10;1.63;;;29.30;91.40;;;;;;5064852;28;20025;-69
2022/01/14 05:15:21;;;;;;;7.85;1.90;;;29.00;91.90;;;;;;5060310;28;20112;-69
2022/01/14 05:17:50;;;;;;;7.32;1.70;;;28.80;92.50;;;;;;5061193;28;20032;-71
2022/01/14 05:20:18;;;;;;;9.77;1.77;;;28.70;93.00;;;;;;5061925;28;20064;-70
2022/01/14 05:22:46;;;;;;;8.13;1.70;;;28.50;92.80;;;;;;5061101;28;20036;-70
2022/01/14 05:25:15;;;;;;;8.07;1.45;;;28.40;93.50;;;;;;5054944;28;20444;-70
2022/01/14 05:27:43;;;;;;;4.63;1.33;;;28.20;93.70;;;;;;5060314;28;20108;-70
2022/01/14 05:30:13;;;;;;;8.48;1.48;;;28.10;93.80;;;;;;5058630;28;20021;-70
2022/01/14 05:32:49;;;;;;;8.88;2.13;;;28.00;94.00;;;;;;5069455;28;20048;-71
2022/01/14 05:35:19;;;;;;;9.30;1.75;;;28.00;94.20;;;;;;5067268;28;20460;-69
2022/01/14 05:37:47;;;;;;;8.32;1.58;;;27.90;94.70;;;;;;5062981;28;20052;-70
2022/01/14 05:40:15;;;;;;;9.85;1.45;;;28.00;94.10;;;;;;5067318;28;20495;-71
2022/01/14 05:42:43;;;;;;;9.20;1.55;;;27.90;94.70;;;;;;5092293;28;20491;-71
2022/01/14 05:45:14;;;;;;;8.05;1.60;;;28.00;94.80;;;;;;5093942;28;20051;-73
2022/01/14 05:47:42;;;;;;;9.52;2.03;;;28.00;94.70;;;;;;5094225;28;20031;-71
2022/01/14 05:50:12;;;;;;;8.45;1.55;;;28.00;94.60;;;;;;5053106;28;20113;-70
2022/01/14 05:52:40;;;;;;;10.73;1.65;;;28.00;95.00;;;;;;5062582;28;20087;-71
2022/01/14 05:55:09;;;;;;;8.65;1.50;;;28.00;95.10;;;;;;5072843;28;20115;-69
2022/01/14 05:57:38;;;;;;;11.15;1.88;;;28.00;95.40;;;;;;5072492;28;20480;-69
2022/01/14 06:00:12;;;;;;;11.40;2.30;;;28.00;95.50;;;;;;5063930;28;20044;-68
2022/01/14 06:02:40;;;;;;;11.05;1.63;;;28.00;94.80;;;;;;5067703;28;20096;-71
2022/01/14 06:05:08;;;;;;;8.02;1.75;;;28.00;94.70;;;;;;5072675;28;20040;-68
2022/01/14 06:07:35;;;;;;;11.65;2.50;;;27.90;95.20;;;;;;5072709;28;20118;-68
2022/01/14 06:10:04;;;;;;;10.95;1.60;;;28.00;95.60;;;;;;5071436;28;20028;-69
2022/01/14 06:12:31;;;;;;;12.32;2.47;;;28.00;95.60;;;;;;5073439;28;20358;-70
2022/01/14 06:15:00;;;;;;;10.27;1.67;;;27.90;95.50;;;;;;5072711;28;20108;-70
2022/01/14 06:17:28;;;;;;;11.18;1.55;;;27.80;95.70;;;;;;5070775;28;20135;-69
2022/01/14 06:19:55;;;;;;;10.32;1.60;;;27.60;95.70;;;;;;5072059;28;20085;-70
2022/01/14 06:22:23;;;;;;;12.85;1.80;;;27.50;96.00;;;;;;5072651;28;20027;-67
2022/01/14 06:24:50;;;;;;;8.82;1.67;;;27.40;96.00;;;;;;5072873;28;20047;-70
2022/01/14 06:27:18;;;;;;;14.02;2.38;;;27.30;96.80;;;;;;5072017;28;20538;-70
2022/01/14 06:29:45;;;;;;;11.32;1.55;;;27.20;96.30;;;;;;5072517;28;20037;-69
2022/01/14 06:32:13;;;;;;;9.57;1.92;;;27.10;96.40;;;;;;5072540;28;20456;-68
2022/01/14 06:34:40;;;;;;;8.65;1.48;;;27.10;96.60;;;;;;5072562;28;20028;-69
2022/01/14 06:37:07;;;;;;;5.30;1.40;;;27.10;96.50;;;;;;5072224;28;20025;-68
2022/01/14 06:39:37;;;;;;;10.15;2.10;;;27.20;96.60;;;;;;5071864;28;20063;-69
2022/01/14 06:42:05;;;;;;;10.98;2.35;;;27.20;96.60;;;;;;5071950;28;20022;-70
2022/01/14 06:44:33;;;;;;;11.75;2.17;;;27.30;96.70;;;;;;5071610;28;20024;-71
2022/01/14 06:47:00;;;;;;;10.90;2.45;;;27.30;96.80;;;;;;5071692;28;20108;-70
2022/01/14 06:49:28;;;;;;;9.48;2.45;;;27.40;96.60;;;;;;5071371;28;20028;-70
2022/01/14 06:51:55;;;;;;;9.93;1.70;;;27.50;96.80;;;;;;5071482;28;20047;-70
2022/01/14 06:54:23;;;;;;;8.90;2.50;;;27.40;96.80;;;;;;5072163;28;20099;-69
2022/01/14 06:56:50;;;;;;;10.73;1.83;;;27.40;96.90;;;;;;5071624;28;20027;-70
2022/01/14 06:59:17;;;;;;;13.98;2.42;;;27.40;96.70;;;;;;5071764;28;20389;-70
2022/01/14 07:01:44;;;;;;;8.48;2.00;;;27.20;97.00;;;;;;5071769;28;20038;-69
2022/01/14 07:04:12;;;;;;;13.43;2.55;;;27.20;97.10;;;;;;5071306;28;20028;-70
2022/01/14 07:06:39;;;;;;;13.70;2.70;;;27.10;97.40;;;;;;5070394;28;20020;-71
2022/01/14 07:09:06;;;;;;;8.60;2.25;;;27.10;97.50;;;;;;5071349;28;20400;-71
2022/01/14 07:11:36;;;;;;;11.57;2.08;;;27.10;97.00;;;;;;5069952;28;20020;-72
2022/01/14 07:14:07;;;;;;;10.45;2.47;;;27.00;97.00;;;;;;5071193;28;20016;-71
2022/01/14 07:16:35;;;;;;;11.65;2.05;;;27.10;97.60;;;;;;5071570;28;20029;-71
2022/01/14 07:19:04;;;;;;;12.43;2.03;;;27.00;97.10;;;;;;5071469;28;20067;-72
2022/01/14 07:21:34;;;;;;;9.85;2.17;;;26.90;97.10;;;;;;5070475;28;20496;-71
2022/01/14 07:24:03;;;;;;;10.63;2.53;;;26.90;97.40;;;;;;5071617;28;20069;-72
2022/01/14 07:26:31;;;;;;;14.27;2.58;;;26.90;97.50;;;;;;5071392;28;20099;-71
2022/01/14 07:28:58;;;;;;;14.20;2.97;;;27.00;97.80;;;;;;5070879;28;20139;-72
2022/01/14 07:31:25;;;;;;;16.27;2.53;;;27.10;97.30;;;;;;5070803;28;20511;-71
2022/01/14 07:33:53;;;;;;;16.80;2.47;;;27.10;97.60;;;;;;5071397;28;20028;-70
2022/01/14 07:36:20;;;;;;;11.77;2.70;;;27.20;97.50;;;;;;5071310;28;20642;-70
2022/01/14 07:38:48;;;;;;;12.38;3.08;;;27.30;97.60;;;;;;5070177;28;20033;-72
2022/01/14 07:41:16;;;;;;;11.27;2.10;;;27.20;97.60;;;;;;5070182;28;20024;-72
2022/01/14 07:43:48;;;;;;;14.60;2.92;;;27.10;97.50;;;;;;5071688;28;20023;-70
2022/01/14 07:46:16;;;;;;;13.43;3.15;;;27.10;98.10;;;;;;5071841;28;20066;-69
2022/01/14 07:48:43;;;;;;;17.25;2.50;;;27.10;97.90;;;;;;5071264;28;20020;-71
2022/01/14 07:51:11;;;;;;;16.58;2.65;;;26.90;98.20;;;;;;5069770;28;20052;-69
2022/01/14 07:53:40;;;;;;;11.52;2.25;;;26.80;98.40;;;;;;5071419;28;20016;-70
2022/01/14 07:56:11;;;;;;;18.58;3.05;;;26.70;98.80;;;;;;5069553;28;20029;-71
2022/01/14 07:58:40;;;;;;;11.77;3.05;;;26.50;99.10;;;;;;5070274;28;20035;-71
2022/01/14 08:01:08;;;;;;;13.38;2.75;;;26.50;99.40;;;;;;5070185;28;20028;-71
2022/01/14 08:03:36;;;;;;;16.38;3.08;;;26.40;99.50;;;;;;5052610;28;20518;-72
2022/01/14 08:06:04;;;;;;;16.50;3.15;;;26.30;99.70;;;;;;5070855;28;20033;-71
2022/01/14 08:08:34;;;;;;;14.73;3.30;;;26.30;99.60;;;;;;5070696;28;20358;-73
2022/01/14 08:11:02;;;;;;;12.65;2.53;;;26.20;99.80;;;;;;5070966;28;20095;-72
2022/01/14 08:13:29;;;;;;;13.73;3.30;;;26.20;99.90;;;;;;5071296;28;20024;-72
2022/01/14 08:15:57;;;;;;;12.13;2.72;;;26.20;99.80;;;;;;5071173;28;20056;-72
2022/01/14 08:18:24;;;;;;;21.30;3.33;;;26.30;99.80;;;;;;5069561;28;20028;-72
2022/01/14 08:20:52;;;;;;;12.13;2.53;;;26.30;99.70;;;;;;5071357;28;20099;-71
2022/01/14 08:23:20;;;;;;;17.92;3.22;;;26.30;99.60;;;;;;5071504;28;20372;-71
2022/01/14 08:25:47;;;;;;;10.70;2.22;;;26.30;99.70;;;;;;5071342;28;20477;-71
2022/01/14 08:28:14;;;;;;;16.08;3.55;;;26.30;99.60;;;;;;5071020;28;20047;-72
2022/01/14 08:30:42;;;;;;;18.70;2.88;;;26.30;99.70;;;;;;5071089;28;20032;-71
2022/01/14 08:33:09;;;;;;;12.32;2.47;;;26.30;99.80;;;;;;5070571;28;20031;-72
2022/01/14 08:35:36;;;;;;;15.70;3.58;;;26.30;99.90;;;;;;5070756;28;20017;-72
2022/01/14 08:38:03;;;;;;;9.95;2.90;;;26.20;99.90;;;;;;5071096;28;20021;-71
2022/01/14 08:40:31;;;;;;;12.40;3.08;;;26.20;99.80;;;;;;5058655;28;20033;-72
2022/01/14 08:42:58;;;;;;;14.30;2.80;;;26.20;99.90;;;;;;5050682;28;20032;-71
2022/01/14 08:45:26;;;;;;;16.70;3.13;;;26.20;99.70;;;;;;5065278;28;20020;-71
2022/01/14 08:47:55;;;;;;;14.80;2.80;;;26.10;99.70;;;;;;5064625;28;20044;-71
2022/01/14 08:50:24;;;;;;;9.90;2.97;;;26.10;99.90;;;;;;5051183;28;20060;-72
2022/01/14 08:52:52;;;;;;;9.65;2.40;;;26.10;99.90;;;;;;5058796;28;20021;-73
2022/01/14 08:55:24;;;;;;;12.52;2.70;;;26.00;99.90;;;;;;5059176;28;20036;-71
2022/01/14 08:57:51;;;;;;;;;;;26.00;99.90;;;;;;5056408;28;20377;-72
2022/01/14 09:00:20;;;;;;;10.60;2.45;;;26.00;99.90;;;;;;5069380;28;19964;-73
2022/01/14 09:02:48;;;;;;;16.35;3.75;;;26.00;99.90;;;;;;5063414;28;20025;-72
2022/01/14 09:05:16;;;;;;;14.38;3.45;;;25.90;99.90;;;;;;5056501;28;20025;-72
2022/01/14 09:07:43;;;;;;;19.80;4.80;;;25.90;99.90;;;;;;5067794;28;20180;-71
2022/01/14 09:10:14;;;;;;;14.48;2.83;;;25.80;99.90;;;;;;5074745;28;20035;-72
2022/01/14 09:12:42;;;;;;;13.88;2.92;;;25.80;99.90;;;;;;5064043;28;20342;-71
2022/01/14 09:15:10;;;;;;;17.00;3.95;;;25.80;99.90;;;;;;5065214;28;20025;-71
2022/01/14 09:17:40;;;;;;;15.40;3.72;;;25.80;99.90;;;;;;5067295;28;20430;-71
2022/01/14 09:20:09;;;;;;;25.13;4.75;;;25.70;99.90;;;;;;5072114;28;20032;-71
2022/01/14 09:22:37;;;;;;;15.75;3.17;;;25.70;99.90;;;;;;5067131;28;20016;-72
2022/01/14 09:25:19;;;;;;;16.80;3.95;;;25.60;99.90;;;;;;5066818;28;20052;-71
2022/01/14 09:27:48;;;;;;;14.10;3.35;;;25.60;99.90;;;;;;5072013;28;20515;-72
2022/01/14 09:30:16;;;;;;;14.05;3.28;;;25.50;99.90;;;;;;5071928;28;20107;-72
2022/01/14 09:32:43;;;;;;;16.50;3.88;;;25.50;99.90;;;;;;5070778;28;20019;-72
2022/01/14 09:35:13;;;;;;;17.02;3.92;;;25.50;99.90;;;;;;5081453;28;20102;-72
2022/01/14 09:37:42;;;;;;;19.80;3.70;;;25.50;99.90;;;;;;5093652;28;20071;-72
2022/01/14 09:40:10;;;;;;;17.95;4.28;;;25.50;99.90;;;;;;5070396;28;20115;-69
2022/01/14 09:42:37;;;;;;;16.50;3.75;;;25.40;99.90;;;;;;5065108;28;20013;-69
2022/01/14 09:45:05;;;;;;;14.95;3.53;;;25.40;99.90;;;;;;5052224;28;20028;-70
2022/01/14 09:47:32;;;;;;;15.32;3.88;;;25.40;99.90;;;;;;5093600;28;20354;-68
2022/01/14 09:50:00;;;;;;;14.68;3.00;;;25.30;99.90;;;;;;5091946;28;20081;-70
2022/01/14 09:52:27;;;;;;;18.95;3.42;;;25.30;99.90;;;;;;5070987;28;20017;-69
2022/01/14 09:54:55;;;;;;;14.93;3.67;;;25.30;99.90;;;;;;5068122;28;20055;-70
2022/01/14 09:57:22;;;;;;;20.33;3.53;;;25.30;99.90;;;;;;5071661;28;20013;-68
2022/01/14 09:59:50;;;;;;;13.27;4.20;;;25.30;99.90;;;;;;5071239;28;20090;-68
2022/01/14 10:02:50;;;;;;;16.20;3.60;;;25.30;99.90;;;;;;5070454;28;20028;-68
2022/01/14 10:05:34;;;;;;;17.02;3.47;;;25.20;99.90;;;;;;5036370;28;20036;-67
2022/01/14 10:08:17;;;;;;;14.52;3.13;;;25.20;99.90;;;;;;5093135;28;20057;-69
2022/01/14 10:10:48;;;;;;;14.70;3.33;;;25.20;99.90;;;;;;5092626;28;20030;-71
2022/01/14 10:13:28;;;;;;;17.23;3.47;;;25.20;99.90;;;;;;5059830;28;20048;-68
2022/01/14 10:16:07;;;;;;;16.85;3.95;;;25.20;99.90;;;;;;5060817;28;20056;-70
2022/01/14 10:18:36;;;;;;;20.88;5.13;;;25.20;99.90;;;;;;5063953;28;20036;-70
2022/01/14 10:21:10;;;;;;;19.40;4.30;;;25.10;99.90;;;;;;5054727;28;20029;-68
2022/01/14 10:23:51;;;;;;;17.60;3.88;;;25.10;99.90;;;;;;5052941;28;20084;-69
2022/01/14 10:26:20;;;;;;;19.67;5.20;;;25.10;99.90;;;;;;5052471;28;20060;-70
2022/01/14 10:29:08;;;;;;;20.55;4.00;;;25.10;99.90;;;;;;5060830;28;20527;-70
2022/01/14 10:31:37;;;;;;;16.75;3.85;;;25.00;99.90;;;;;;5051656;28;20049;-69
2022/01/14 10:34:15;;;;;;;16.65;2.90;;;25.10;99.90;;;;;;5054185;28;20025;-70
2022/01/14 10:36:47;;;;;;;16.05;3.83;;;25.10;99.90;;;;;;5068362;28;20031;-69
2022/01/14 10:39:18;;;;;;;;;;;25.00;99.90;;;;;;5072941;28;20043;-69
2022/01/14 10:41:45;;;;;;;16.70;3.85;;;25.00;99.90;;;;;;5058165;28;19909;-69
2022/01/14 10:44:38;;;;;;;15.75;3.20;;;25.00;99.90;;;;;;5068983;28;20032;-70
2022/01/14 10:47:14;;;;;;;13.40;3.38;;;25.00;99.90;;;;;;5071556;28;20059;-69
2022/01/14 10:49:42;;;;;;;16.50;4.63;;;24.90;99.90;;;;;;5068334;28;20530;-70
2022/01/14 10:52:11;;;;;;;14.55;3.60;;;24.90;99.90;;;;;;5062695;28;20033;-69
2022/01/14 10:54:44;;;;;;;14.68;3.40;;;24.90;99.90;;;;;;5066429;28;20017;-69
2022/01/14 10:57:23;;;;;;;19.38;4.07;;;24.90;99.90;;;;;;5064933;28;20043;-69
2022/01/14 10:59:55;;;;;;;16.77;4.30;;;24.80;99.90;;;;;;5063207;28;20064;-71
2022/01/14 11:02:48;;;;;;;21.90;3.95;;;24.80;99.90;;;;;;5068992;28;20377;-70
2022/01/14 11:05:19;;;;;;;18.92;4.20;;;24.80;99.90;;;;;;5065736;28;20397;-69
2022/01/14 11:07:48;;;;;;;20.23;3.80;;;24.80;99.90;;;;;;5067802;28;20023;-69
2022/01/14 11:10:25;;;;;;;19.10;3.90;;;24.80;99.90;;;;;;5065033;28;20016;-70
2022/01/14 11:12:55;;;;;;;18.58;4.72;;;24.70;99.90;;;;;;5063302;28;20040;-69
2022/01/14 11:15:24;;;;;;;20.60;6.05;;;24.70;99.90;;;;;;5064925;28;20351;-69
2022/01/14 11:17:54;;;;;;;17.10;4.05;;;24.70;99.90;;;;;;5066223;28;20051;-69
2022/01/14 11:20:36;;;;;;;20.00;4.30;;;24.70;99.90;;;;;;5065108;28;20028;-71
2022/01/14 11:23:16;;;;;;;17.50;4.70;;;24.70;99.90;;;;;;5066579;28;20031;-71
2022/01/14 11:25:50;;;;;;;21.30;3.90;;;24.70;99.90;;;;;;5065585;28;20465;-71
2022/01/14 11:28:24;;;;;;;20.23;4.38;;;24.60;99.90;;;;;;5064617;28;20031;-70
2022/01/14 11:30:52;;;;;;;19.40;4.10;;;24.50;99.90;;;;;;5059241;28;20048;-71
2022/01/14 11:33:19;;;;;;;21.30;4.55;;;24.50;99.90;;;;;;5061084;28;20429;-70
2022/01/14 11:35:58;;;;;;;17.30;4.13;;;24.50;99.90;;;;;;5064971;28;20367;-70
2022/01/14 11:38:36;;;;;;;16.27;4.28;;;24.40;99.90;;;;;;5064290;28;20069;-71
2022/01/14 11:41:04;;;;;;;15.52;3.33;;;24.40;99.90;;;;;;5069221;28;20036;-70
2022/01/14 11:43:46;;;;;;;16.15;4.65;;;24.40;99.90;;;;;;5063732;28;20036;-70
2022/01/14 11:46:35;;;;;;;21.20;4.65;;;24.40;99.90;;;;;;5067646;28;20672;-70
2022/01/14 11:49:22;;;;;;;14.82;3.65;;;24.40;99.90;;;;;;5060070;28;20424;-72
2022/01/14 11:52:09;;;;;;;18.52;4.28;;;24.30;99.90;;;;;;5059009;28;20085;-72
2022/01/14 11:54:44;;;;;;;17.42;4.25;;;24.30;99.90;;;;;;5058815;28;20044;-71
2022/01/14 11:57:32;;;;;;;17.50;4.45;;;24.40;99.90;;;;;;5055527;28;20036;-72
2022/01/14 11:59:59;;;;;;;12.50;3.83;;;24.40;99.90;;;;;;5046936;28;20074;-72
2022/01/14 12:02:30;;;;;;;20.33;4.00;;;24.30;99.90;;;;;;5058122;28;20519;-72
2022/01/14 12:05:10;;;;;;;21.92;4.43;;;24.30;99.90;;;;;;5053021;28;20025;-72
2022/01/14 12:08:05;;;;;;;17.30;4.15;;;24.30;99.90;;;;;;5050782;28;20028;-72
2022/01/14 12:10:43;;;;;;;16.27;3.20;;;24.30;99.90;;;;;;5059811;28;20115;-73
2022/01/14 12:13:37;;;;;;;23.48;5.53;;;24.30;99.90;;;;;;5058414;28;20025;-72
2022/01/14 12:17:12;;;;;;;19.23;4.88;;;24.30;99.90;;;;;;5055861;28;20060;-73
2022/01/14 12:19:10;;;;;;;16.17;4.47;;;24.30;99.90;;;;;;5056145;28;20489;-72
2022/01/14 12:21:50;;;;;;;16.83;4.10;;;24.30;99.90;;;;;;5065366;28;20032;-73
2022/01/14 12:24:17;;;;;;;18.10;3.78;;;24.30;99.90;;;;;;5060797;28;20035;-72
2022/01/14 12:27:11;;;;;;;21.08;4.28;;;24.20;99.90;;;;;;5065289;28;20028;-73
2022/01/14 12:29:47;;;;;;;22.95;4.10;;;24.10;99.90;;;;;;5057424;28;20044;-73
2022/01/14 12:32:29;;;;;;;16.38;3.97;;;24.10;99.90;;;;;;5062199;28;20068;-73
2022/01/14 12:34:56;;;;;;;21.52;5.00;;;24.10;99.90;;;;;;5055891;28;20393;-73
2022/01/14 12:37:26;;;;;;;22.17;5.75;;;24.10;99.90;;;;;;5061802;28;20020;-73
2022/01/14 12:39:54;;;;;;;25.83;4.95;;;24.10;99.90;;;;;;5061834;28;20051;-73
2022/01/14 12:42:22;;;;;;;17.73;4.45;;;24.00;99.90;;;;;;5064989;28;20035;-72
2022/01/14 12:44:52;;;;;;;17.45;5.15;;;24.10;99.90;;;;;;5062839;28;20021;-73
2022/01/14 12:47:35;;;;;;;19.67;4.25;;;24.00;99.90;;;;;;5061645;28;20021;-72
2022/01/14 12:50:10;;;;;;;23.05;4.75;;;24.00;99.90;;;;;;5066428;28;20027;-73
2022/01/14 12:52:50;;;;;;;25.88;5.13;;;24.00;99.90;;;;;;5066108;28;20548;-73
2022/01/14 12:55:19;;;;;;;17.65;4.40;;;24.00;99.90;;;;;;5078523;28;20063;-72
2022/01/14 12:57:46;;;;;;;16.67;4.13;;;24.00;99.90;;;;;;5062957;28;20478;-73
2022/01/14 13:00:16;;;;;;;16.05;5.00;;;24.00;99.90;;;;;;5067910;28;20033;-73
2022/01/14 13:02:43;;;;;;;20.65;5.50;;;24.00;99.90;;;;;;5062109;28;20021;-73
2022/01/14 13:05:16;;;;;;;22.73;4.35;;;24.00;99.90;;;;;;5065344;28;20140;-72
2022/01/14 13:07:45;;;;;;;18.83;5.50;;;24.00;99.90;;;;;;5062675;28;20033;-73
2022/01/14 13:10:14;;;;;;;19.33;4.20;;;24.00;99.90;;;;;;5061117;28;20111;-73
2022/01/14 13:12:44;;;;;;;19.25;4.55;;;24.00;99.90;;;;;;5070541;28;20027;-72
2022/01/14 13:15:23;;;;;;;16.80;5.05;;;24.00;99.90;;;;;;5070506;28;20035;-73
2022/01/14 13:18:02;;;;;;;17.30;4.55;;;24.00;99.90;;;;;;5068348;28;20440;-72
2022/01/14 13:20:32;;;;;;;20.27;5.22;;;24.00;99.90;;;;;;5068580;28;20040;-72
2022/01/14 13:22:59;;;;;;;19.77;5.40;;;23.90;99.90;;;;;;5072670;28;20115;-72